Time;durP1;ratioP1;P1;durP2;ratioP2;P2;SDS_P1;SDS_P2;PMS_P1;PMS_P2;Temp;Humidity;BMP_temperature;BMP_pressure;BME280_temperature;BME280_humidity;BME280_pressure;Samples;Min_cycle;Max_cycle;Signal;HPM_P1;HPM_P2
2022/11/09 00:00:01;;;;;;;;;;;;;;;11.19;64.53;96536.19;30002;983;1880;-58
2022/11/09 00:00:33;;;;;;;;;;;;;;;11.21;64.49;96537.50;30002;983;1884;-65
2022/11/09 00:01:05;;;;;;;;;;;;;;;11.24;64.29;96541.53;30002;966;1906;-57
2022/11/09 00:01:36;;;;;;;;;;;;;;;11.25;64.03;96533.06;30002;983;1885;-58
2022/11/09 00:02:07;;;;;;;;;;;;;;;11.26;64.23;96540.09;30002;983;1867;-58
2022/11/09 00:02:38;;;;;;;;;;;;;;;11.26;64.26;96533.87;30002;982;1876;-58
2022/11/09 00:03:09;;;;;;;;;;;;;;;11.27;63.83;96536.28;30002;985;1880;-63
2022/11/09 00:03:40;;;;;;;;;;;;;;;11.31;64.01;96534.56;30002;982;1885;-59
2022/11/09 00:04:14;;;;;;;;;;;;;;;11.30;64.06;96535.69;30002;969;1903;-58
2022/11/09 00:04:45;;;;;;;;;;;;;;;11.30;63.99;96535.69;30002;982;1885;-58
2022/11/09 00:05:16;;;;;;;;;;;;;;;11.31;63.75;96536.47;30002;983;1880;-58
2022/11/09 00:05:55;;;;;;;;;;;;;;;11.31;63.77;96531.84;30002;983;1884;-58
2022/11/09 00:06:26;;;;;;;;;;;;;;;11.29;63.79;96539.50;30002;983;1880;-59
2022/11/09 00:06:57;;;;;;;;;;;;;;;11.27;64.21;96536.28;30002;983;1884;-58
2022/11/09 00:07:29;;;;;;;;;;;;;;;11.27;64.22;96540.91;30002;983;1867;-63
2022/11/09 00:08:00;;;;;;;;;;;;;;;11.25;64.30;96530.34;30002;983;1875;-57
2022/11/09 00:08:31;;;;;;;;;;;;;;;11.27;64.21;96539.00;30002;983;1880;-59
2022/11/09 00:09:04;;;;;;;;;;;;;;;11.26;64.03;96523.81;30002;983;1884;-59
2022/11/09 00:09:35;;;;;;;;;;;;;;;11.27;63.93;96530.03;30002;983;1880;-58
2022/11/09 00:10:06;;;;;;;;;;;;;;;11.28;64.14;96531.66;30002;982;1885;-59
2022/11/09 00:10:37;;;;;;;;;;;;;;;11.27;63.90;96532.75;30002;975;1887;-63
2022/11/09 00:11:09;;;;;;;;;;;;;;;11.26;63.92;96531.97;30002;982;1885;-59
2022/11/09 00:11:40;;;;;;;;;;;;;;;11.26;64.29;96533.87;30002;982;1881;-60
2022/11/09 00:12:12;;;;;;;;;;;;;;;11.28;64.33;96531.66;30002;982;1885;-58
2022/11/09 00:12:43;;;;;;;;;;;;;;;11.28;64.32;96537.09;30002;983;1866;-58
2022/11/09 00:13:14;;;;;;;;;;;;;;;11.27;64.33;96535.47;30002;985;1875;-59
2022/11/09 00:13:45;;;;;;;;;;;;;;;11.26;64.00;96534.69;30002;986;1871;-59
2022/11/09 00:14:16;;;;;;;;;;;;;;;11.26;64.33;96540.09;30002;983;1884;-58
2022/11/09 00:14:47;;;;;;;;;;;;;;;11.26;64.42;96533.87;30002;983;1880;-63
2022/11/09 00:15:18;;;;;;;;;;;;;;;11.27;64.02;96530.84;30002;983;1884;-58
2022/11/09 00:15:49;;;;;;;;;;;;;;;11.26;64.19;96540.09;30002;983;1880;-59
2022/11/09 00:16:21;;;;;;;;;;;;;;;11.28;64.49;96540.59;30002;983;1884;-59
2022/11/09 00:16:52;;;;;;;;;;;;;;;11.29;64.65;96538.69;30002;983;1880;-57
2022/11/09 00:17:23;;;;;;;;;;;;;;;11.29;64.51;96534.06;30002;983;1885;-62
2022/11/09 00:17:54;;;;;;;;;;;;;;;11.27;64.71;96536.28;30002;982;1867;-60
2022/11/09 00:18:25;;;;;;;;;;;;;;;11.27;64.79;96535.47;30002;982;1876;-61
2022/11/09 00:18:55;;;;;;;;;;;;;;;11.26;64.56;96534.69;30002;982;1880;-58
2022/11/09 00:19:26;;;;;;;;;;;;;;;11.24;64.96;96528.75;30002;982;1885;-59
2022/11/09 00:21:04;;;;;;;;;;;;;;;11.22;64.99;96533.69;89991;930;13000;-58
2022/11/09 00:21:35;;;;;;;;;;;;;;;11.20;65.16;96525.03;30001;982;1868;-58
2022/11/09 00:22:06;;;;;;;;;;;;;;;11.19;64.97;96522.62;30001;982;1868;-58
2022/11/09 00:22:37;;;;;;;;;;;;;;;11.18;64.93;96524.53;30001;982;1880;-58
2022/11/09 00:23:08;;;;;;;;;;;;;;;11.17;65.04;96536.50;30001;982;1876;-58
2022/11/09 00:23:39;;;;;;;;;;;;;;;11.14;65.21;96530.88;30001;983;1880;-58
2022/11/09 00:24:10;;;;;;;;;;;;;;;11.14;65.08;96526.25;30001;983;1875;-58
2022/11/09 00:24:41;;;;;;;;;;;;;;;11.14;64.95;96531.69;30001;983;1880;-59
2022/11/09 00:25:12;;;;;;;;;;;;;;;11.14;65.15;96537.09;30001;983;1862;-58
2022/11/09 00:25:43;;;;;;;;;;;;;;;11.13;65.09;96530.06;30001;983;1871;-59
2022/11/09 00:26:15;;;;;;;;;;;;;;;11.12;65.20;96528.47;30001;983;1876;-57
2022/11/09 00:26:46;;;;;;;;;;;;;;;11.11;65.49;96526.84;30001;983;1880;-57
2022/11/09 00:27:16;;;;;;;;;;;;;;;11.07;65.56;96526.69;30001;983;1876;-58
2022/11/09 00:27:48;;;;;;;;;;;;;;;11.06;65.49;96525.06;30001;982;1880;-58
2022/11/09 00:28:19;;;;;;;;;;;;;;;11.04;65.63;96531.91;30001;982;1876;-59
2022/11/09 00:28:50;;;;;;;;;;;;;;;11.02;65.63;96523.28;30001;982;1880;-58
2022/11/09 00:29:21;;;;;;;;;;;;;;;11.02;65.82;96528.69;30001;982;1876;-57
2022/11/09 00:29:51;;;;;;;;;;;;;;;11.02;65.66;96528.69;30001;982;1881;-58
2022/11/09 00:30:22;;;;;;;;;;;;;;;11.03;65.78;96533.03;30001;982;1863;-57
2022/11/09 00:30:59;;;;;;;;;;;;;;;11.01;65.79;96532.53;30001;983;1871;-60
2022/11/09 00:31:30;;;;;;;;;;;;;;;11.02;66.03;96524.06;30001;983;1875;-57
2022/11/09 00:32:01;;;;;;;;;;;;;;;11.04;65.66;96526.50;30001;983;1880;-59
2022/11/09 00:32:32;;;;;;;;;;;;;;;11.04;65.80;96521.06;30001;983;1876;-59
2022/11/09 00:33:03;;;;;;;;;;;;;;;11.05;65.42;96528.09;30001;983;1880;-59
2022/11/09 00:33:34;;;;;;;;;;;;;;;11.04;65.74;96521.06;30001;983;1876;-58
2022/11/09 00:34:05;;;;;;;;;;;;;;;11.03;65.45;96522.16;30001;983;1880;-58
2022/11/09 00:34:36;;;;;;;;;;;;;;;11.03;65.38;96519.44;30001;983;1775;-58
2022/11/09 00:35:07;;;;;;;;;;;;;;;11.05;65.23;96528.09;30001;982;1880;-57
2022/11/09 00:35:38;;;;;;;;;;;;;;;11.04;65.51;96521.06;30001;982;1863;-57
2022/11/09 00:36:10;;;;;;;;;;;;;;;11.04;65.37;96521.06;30001;982;1872;-58
2022/11/09 00:36:41;;;;;;;;;;;;;;;11.03;65.61;96516.72;30001;982;1876;-63
2022/11/09 00:37:12;;;;;;;;;;;;;;;11.03;65.56;96524.87;30001;982;1881;-58
2022/11/09 00:37:43;;;;;;;;;;;;;;;11.03;65.81;96525.69;30001;982;1876;-57
2022/11/09 00:38:14;;;;;;;;;;;;;;;11.05;65.67;96526.19;30001;982;1881;-58
2022/11/09 00:38:49;;;;;;;;;;;;;;;11.07;65.72;96525.87;30001;983;1875;-57
2022/11/09 00:39:20;;;;;;;;;;;;;;;11.07;65.71;96529.41;30001;983;1880;-58
2022/11/09 00:39:50;;;;;;;;;;;;;;;11.06;65.73;96529.69;30001;983;1876;-58
2022/11/09 00:40:21;;;;;;;;;;;;;;;11.06;65.51;96524.28;30001;983;1880;-58
2022/11/09 00:40:52;;;;;;;;;;;;;;;11.04;65.66;96531.91;30001;983;1863;-57
2022/11/09 00:41:24;;;;;;;;;;;;;;;11.04;65.80;96526.50;30001;983;1871;-57
2022/11/09 00:41:55;;;;;;;;;;;;;;;11.05;65.74;96523.47;30001;983;1876;-58
2022/11/09 00:42:25;;;;;;;;;;;;;;;11.05;65.61;96522.66;30001;983;1880;-59
2022/11/09 00:42:56;;;;;;;;;;;;;;;11.03;65.62;96525.69;30001;982;1876;-58
2022/11/09 00:43:27;;;;;;;;;;;;;;;11.02;65.62;96525.97;30001;982;1880;-59
2022/11/09 00:43:58;;;;;;;;;;;;;;;11.01;65.83;96527.09;30001;982;1876;-57
2022/11/09 00:44:29;;;;;;;;;;;;;;;11.00;65.89;96531.72;30001;982;1881;-59
2022/11/09 00:45:00;;;;;;;;;;;;;;;11.01;65.95;96533.31;30001;982;1876;-58
2022/11/09 00:45:31;;;;;;;;;;;;;;;10.99;65.86;96529.31;30001;982;1881;-58
2022/11/09 00:46:03;;;;;;;;;;;;;;;10.98;66.01;96533.13;30001;983;1862;-58
2022/11/09 00:46:34;;;;;;;;;;;;;;;10.97;65.63;96526.09;30001;983;1871;-57
2022/11/09 00:47:05;;;;;;;;;;;;;;;10.97;65.93;96531.53;30001;983;1876;-59
2022/11/09 00:47:36;;;;;;;;;;;;;;;10.97;65.71;96526.09;30001;983;1790;-58
2022/11/09 00:48:07;;;;;;;;;;;;;;;10.97;65.74;96526.09;30001;983;1876;-58
2022/11/09 00:48:39;;;;;;;;;;;;;;;11.00;65.51;96520.06;30001;983;1867;-59
2022/11/09 00:49:10;;;;;;;;;;;;;;;10.98;65.84;96523.06;30001;983;1867;-60
2022/11/09 00:49:41;;;;;;;;;;;;;;;10.99;65.77;96518.44;30001;983;1880;-57
2022/11/09 00:50:12;;;;;;;;;;;;;;;11.00;65.68;96520.06;30001;982;1876;-58
2022/11/09 00:50:52;;;;;;;;;;;;;;;10.99;65.65;96521.16;30001;973;1900;-58
2022/11/09 00:51:24;;;;;;;;;;;;;;;11.02;65.77;96525.97;30001;982;1876;-58
2022/11/09 00:51:55;;;;;;;;;;;;;;;11.01;65.64;96521.66;30001;982;1881;-59
2022/11/09 00:52:26;;;;;;;;;;;;;;;11.02;65.75;96520.56;30001;982;1876;-58
2022/11/09 00:52:57;;;;;;;;;;;;;;;11.01;65.61;96521.66;30001;982;1881;-58
2022/11/09 00:53:28;;;;;;;;;;;;;;;11.00;65.64;96526.28;30001;982;1863;-57
2022/11/09 00:53:59;;;;;;;;;;;;;;;10.97;65.69;96512.50;30001;983;1871;-57
2022/11/09 00:54:31;;;;;;;;;;;;;;;10.96;66.14;96517.13;30001;983;1876;-58
2022/11/09 00:55:02;;;;;;;;;;;;;;;10.94;65.75;96518.56;30001;983;1880;-59
2022/11/09 00:55:33;;;;;;;;;;;;;;;10.91;66.19;96524.59;30001;983;1876;-58
2022/11/09 00:56:11;;;;;;;;;;;;;;;10.89;66.13;96518.66;30001;983;1880;-58
2022/11/09 00:56:41;;;;;;;;;;;;;;;10.86;66.49;96519.25;30001;983;1876;-57
2022/11/09 00:57:12;;;;;;;;;;;;;;;10.87;66.19;96520.88;30001;983;1880;-58
2022/11/09 00:57:43;;;;;;;;;;;;;;;10.91;66.15;96519.16;30001;983;1876;-57
2022/11/09 00:58:14;;;;;;;;;;;;;;;10.95;65.74;96518.25;30001;982;1880;-59
2022/11/09 00:58:45;;;;;;;;;;;;;;;10.97;65.57;96521.47;30001;982;1863;-59
2022/11/09 00:59:16;;;;;;;;;;;;;;;11.01;65.91;96511.59;30001;982;1872;-57
2022/11/09 00:59:47;;;;;;;;;;;;;;;11.01;65.89;96511.59;30001;982;1876;-59
2022/11/09 01:00:20;;;;;;;;;;;;;;;11.00;65.90;96509.19;30001;983;1880;-58
2022/11/09 01:00:51;;;;;;;;;;;;;;;10.99;65.90;96516.53;30001;983;1875;-58
2022/11/09 01:01:22;;;;;;;;;;;;;;;11.00;65.57;96520.06;30001;983;1880;-58
2022/11/09 01:01:53;;;;;;;;;;;;;;;10.97;65.86;96513.31;30001;983;1875;-58
2022/11/09 01:02:24;;;;;;;;;;;;;;;10.97;65.70;96520.66;30001;983;1880;-58
2022/11/09 01:02:55;;;;;;;;;;;;;;;10.96;65.87;96513.62;30001;983;1876;-57
2022/11/09 01:03:26;;;;;;;;;;;;;;;10.97;65.59;96509.81;30001;983;1880;-58
2022/11/09 01:03:57;;;;;;;;;;;;;;;10.98;65.66;96505.97;30001;983;1863;-58
2022/11/09 01:04:28;;;;;;;;;;;;;;;10.99;65.56;96518.44;30001;983;1872;-61
2022/11/09 01:04:59;;;;;;;;;;;;;;;10.98;65.69;96511.41;30001;983;1876;-57
2022/11/09 01:05:30;;;;;;;;;;;;;;;10.98;65.56;96511.41;30001;982;1880;-59
2022/11/09 01:06:02;;;;;;;;;;;;;;;10.99;65.90;96507.59;30001;982;1863;-58
2022/11/09 01:06:33;;;;;;;;;;;;;;;10.99;65.69;96513.00;30001;982;1872;-57
2022/11/09 01:07:05;;;;;;;;;;;;;;;10.99;65.85;96516.53;30001;986;1876;-57
2022/11/09 01:07:36;;;;;;;;;;;;;;;10.99;65.64;96518.44;30001;982;1881;-58
2022/11/09 01:08:07;;;;;;;;;;;;;;;10.99;65.94;96510.31;30001;983;1862;-58
2022/11/09 01:08:38;;;;;;;;;;;;;;;11.00;65.59;96517.34;30001;983;1871;-57
2022/11/09 01:09:09;;;;;;;;;;;;;;;10.97;65.86;96512.50;30001;983;1862;-58
2022/11/09 01:09:40;;;;;;;;;;;;;;;10.95;65.69;96520.16;30001;983;1871;-59
2022/11/09 01:10:11;;;;;;;;;;;;;;;10.93;65.99;96525.09;30001;983;1876;-57
2022/11/09 01:10:43;;;;;;;;;;;;;;;10.90;65.98;96521.06;30001;983;1880;-58
2022/11/09 01:11:15;;;;;;;;;;;;;;;10.94;66.07;96527.50;30001;983;1863;-58
2022/11/09 01:11:46;;;;;;;;;;;;;;;10.97;66.18;96524.19;30001;983;1871;-58
2022/11/09 01:12:16;;;;;;;;;;;;;;;10.96;66.22;96529.91;30001;983;1876;-58
2022/11/09 01:12:47;;;;;;;;;;;;;;;10.97;65.84;96526.09;30001;983;1880;-57
2022/11/09 01:13:18;;;;;;;;;;;;;;;10.94;66.04;96526.69;30001;982;1876;-62
2022/11/09 01:13:50;;;;;;;;;;;;;;;10.94;65.85;96522.06;30001;982;1881;-62
2022/11/09 01:14:21;;;;;;;;;;;;;;;10.92;65.84;96529.72;30001;982;1863;-58
2022/11/09 01:14:52;;;;;;;;;;;;;;;10.92;65.87;96529.72;30001;982;1872;-57
2022/11/09 01:15:23;;;;;;;;;;;;;;;10.92;66.17;96526.19;30001;983;1875;-58
2022/11/09 01:15:54;;;;;;;;;;;;;;;10.89;66.18;96529.50;30001;983;1880;-58
2022/11/09 01:16:25;;;;;;;;;;;;;;;10.86;66.27;96524.69;30001;983;1876;-58
2022/11/09 01:16:56;;;;;;;;;;;;;;;10.86;66.24;96530.12;30001;983;1880;-59
2022/11/09 01:17:27;;;;;;;;;;;;;;;10.84;66.36;96522.28;30001;983;1862;-57
2022/11/09 01:17:58;;;;;;;;;;;;;;;10.86;66.39;96530.12;30001;983;1747;-58
2022/11/09 01:18:29;;;;;;;;;;;;;;;10.89;66.14;96524.09;30001;983;1876;-58
2022/11/09 01:18:59;;;;;;;;;;;;;;;10.90;65.89;96528.41;30001;983;1880;-58
2022/11/09 01:19:31;;;;;;;;;;;;;;;10.91;66.11;96524.59;30001;983;1876;-58
2022/11/09 01:20:03;;;;;;;;;;;;;;;10.92;66.11;96523.47;30001;983;1880;-58
2022/11/09 01:20:37;;;;;;;;;;;;;;;10.93;66.08;96523.19;30001;982;1876;-60
2022/11/09 01:21:10;;;;;;;;;;;;;;;10.92;65.98;96518.03;30001;982;1880;-58
2022/11/09 01:21:41;;;;;;;;;;;;;;;10.95;65.81;96517.44;30001;982;1863;-58
2022/11/09 01:22:12;;;;;;;;;;;;;;;10.96;65.78;96525.28;30001;982;1859;-58
2022/11/09 01:22:43;;;;;;;;;;;;;;;10.96;66.11;96530.72;30001;982;1876;-58
2022/11/09 01:23:15;;;;;;;;;;;;;;;10.94;65.92;96526.69;30001;983;1851;-58
2022/11/09 01:23:46;;;;;;;;;;;;;;;10.91;66.34;96530.00;30001;983;1876;-57
2022/11/09 01:24:17;;;;;;;;;;;;;;;10.91;66.20;96532.72;30001;983;1880;-63
2022/11/09 01:24:47;;;;;;;;;;;;;;;10.89;66.61;96532.22;30001;983;1876;-58
2022/11/09 01:25:18;;;;;;;;;;;;;;;10.88;66.41;96527.91;30001;983;1880;-63
2022/11/09 01:25:56;;;;;;;;;;;;;;;10.89;66.51;96530.31;30001;983;1876;-58
2022/11/09 01:26:28;;;;;;;;;;;;;;;10.91;66.35;96530.00;30001;983;1868;-59
2022/11/09 01:26:59;;;;;;;;;;;;;;;10.93;66.44;96525.09;30001;983;1854;-60
2022/11/09 01:27:31;;;;;;;;;;;;;;;10.92;66.14;96534.34;30001;983;1880;-59
2022/11/09 01:28:03;;;;;;;;;;;;;;;10.92;66.35;96523.47;30001;982;1876;-58
2022/11/09 01:28:34;;;;;;;;;;;;;;;10.96;66.41;96529.91;30001;982;1867;-58
2022/11/09 01:29:05;;;;;;;;;;;;;;;10.96;66.20;96524.47;30001;982;1867;-58
2022/11/09 01:29:40;;;;;;;;;;;;;;;10.96;66.15;96527.19;30001;982;1868;-58
2022/11/09 01:30:12;;;;;;;;;;;;;;;10.98;66.10;96523.06;30001;971;1872;-58
2022/11/09 01:30:42;;;;;;;;;;;;;;;10.99;65.74;96530.09;30001;983;1880;-58
2022/11/09 01:31:15;;;;;;;;;;;;;;;10.99;66.17;96526.59;30001;970;1897;-58
2022/11/09 01:31:47;;;;;;;;;;;;;;;10.99;65.91;96521.16;30001;983;1867;-59
2022/11/09 01:32:18;;;;;;;;;;;;;;;10.97;65.97;96531.53;30001;983;1867;-57
2022/11/09 01:32:49;;;;;;;;;;;;;;;10.95;66.30;96533.72;30001;983;1867;-60
2022/11/09 01:33:20;;;;;;;;;;;;;;;10.93;66.33;96530.50;30001;983;1867;-58
2022/11/09 01:33:51;;;;;;;;;;;;;;;10.95;66.32;96533.72;30001;983;1880;-57
2022/11/09 01:34:22;;;;;;;;;;;;;;;10.98;66.33;96523.06;30001;983;1876;-57
2022/11/09 01:34:53;;;;;;;;;;;;;;;10.97;65.99;96526.09;30001;982;1880;-58
2022/11/09 01:35:24;;;;;;;;;;;;;;;10.98;66.21;96527.69;30001;982;1876;-59
2022/11/09 01:36:00;;;;;;;;;;;;;;;10.94;66.13;96522.06;30001;982;1880;-57
2022/11/09 01:36:31;;;;;;;;;;;;;;;10.94;66.45;96526.69;30001;982;1876;-59
2022/11/09 01:37:02;;;;;;;;;;;;;;;10.92;66.16;96523.47;30001;982;1867;-58
2022/11/09 01:37:33;;;;;;;;;;;;;;;10.91;66.40;96530.00;30001;982;1854;-59
2022/11/09 01:38:05;;;;;;;;;;;;;;;10.91;66.43;96527.28;30001;983;1880;-57
2022/11/09 01:38:37;;;;;;;;;;;;;;;10.90;66.38;96523.78;30001;983;1875;-57
2022/11/09 01:39:08;;;;;;;;;;;;;;;10.90;66.23;96525.69;30001;983;1880;-60
2022/11/09 01:39:38;;;;;;;;;;;;;;;10.88;66.35;96523.28;30001;983;1876;-58
2022/11/09 01:40:10;;;;;;;;;;;;;;;10.87;66.36;96526.28;30001;983;1880;-57
2022/11/09 01:40:41;;;;;;;;;;;;;;;10.84;66.77;96526.91;30001;983;1876;-57
2022/11/09 01:41:16;;;;;;;;;;;;;;;10.88;66.46;96527.91;30001;983;1880;-57
2022/11/09 01:41:47;;;;;;;;;;;;;;;10.89;66.72;96524.09;30001;983;1863;-57
2022/11/09 01:42:24;;;;;;;;;;;;;;;10.89;66.52;96529.50;30001;982;1872;-58
2022/11/09 01:42:56;;;;;;;;;;;;;;;10.88;66.42;96527.91;30001;982;1863;-59
2022/11/09 01:43:26;;;;;;;;;;;;;;;10.91;66.06;96521.88;30001;982;1872;-58
2022/11/09 01:44:07;;;;;;;;;;;;;;;10.92;66.33;96518.03;30001;982;1876;-58
2022/11/09 01:44:38;;;;;;;;;;;;;;;10.92;66.04;96524.28;30001;982;1880;-58
2022/11/09 01:45:22;;;;;;;;;;;;;;;10.89;66.48;96524.09;30001;982;1876;-58
2022/11/09 01:46:12;;;;;;;;;;;;;;;10.90;66.10;96514.84;30001;983;1880;-58
2022/11/09 01:46:52;;;;;;;;;;;;;;;10.92;65.97;96524.28;30001;983;1876;-56
2022/11/09 01:47:25;;;;;;;;;;;;;;;10.95;65.99;96522.88;30001;983;1880;-57
2022/11/09 01:48:15;;;;;;;;;;;;;;;10.91;65.98;96521.88;30001;983;1862;-58
2022/11/09 01:48:52;;;;;;;;;;;;;;;10.88;66.07;96512.41;30001;983;1867;-58
2022/11/09 01:49:33;;;;;;;;;;;;;;;10.90;66.26;96514.84;30001;983;1876;-58
2022/11/09 01:50:04;;;;;;;;;;;;;;;10.92;65.97;96509.91;30001;982;1867;-58
2022/11/09 01:50:39;;;;;;;;;;;;;;;10.95;66.05;96509.31;30001;982;1867;-57
2022/11/09 01:51:13;;;;;;;;;;;;;;;10.99;65.94;96513.00;30001;982;1880;-58
2022/11/09 01:51:49;;;;;;;;;;;;;;;10.99;66.00;96507.59;30001;982;1876;-58
2022/11/09 01:52:28;;;;;;;;;;;;;;;10.98;65.67;96511.41;30001;982;1881;-56
2022/11/09 01:53:01;;;;;;;;;;;;;;;10.96;65.68;96513.62;30001;982;1863;-58
2022/11/09 01:53:33;;;;;;;;;;;;;;;11.00;65.49;96510.00;30001;983;1871;-58
2022/11/09 01:54:11;;;;;;;;;;;;;;;11.01;65.83;96508.88;30001;983;1876;-64
2022/11/09 01:54:47;;;;;;;;;;;;;;;11.01;65.64;96510.81;30001;983;1880;-58
2022/11/09 01:55:20;;;;;;;;;;;;;;;10.99;65.53;96513.81;30001;983;1876;-59
2022/11/09 01:55:54;;;;;;;;;;;;;;;11.01;65.49;96510.81;30001;983;1880;-59
2022/11/09 01:56:26;;;;;;;;;;;;;;;11.04;65.72;96512.91;30001;983;1863;-58
2022/11/09 01:57:00;;;;;;;;;;;;;;;11.04;65.36;96502.06;30001;983;1871;-58
2022/11/09 01:57:33;;;;;;;;;;;;;;;11.07;65.34;96513.09;30001;982;1876;-59
2022/11/09 01:58:09;;;;;;;;;;;;;;;11.06;65.62;96513.41;30001;982;1867;-59
2022/11/09 01:58:52;;;;;;;;;;;;;;;11.06;65.23;96513.41;30001;982;1867;-58
2022/11/09 01:59:26;;;;;;;;;;;;;;;11.06;65.64;96508.78;30001;982;1868;-58
2022/11/09 02:00:00;;;;;;;;;;;;;;;11.04;65.67;96512.91;30001;983;1867;-59
2022/11/09 02:00:33;;;;;;;;;;;;;;;11.06;65.44;96499.84;30001;983;1880;-58
2022/11/09 02:01:09;;;;;;;;;;;;;;;11.07;65.14;96515.03;30001;983;1862;-58
2022/11/09 02:01:42;;;;;;;;;;;;;;;11.05;65.28;96506.38;30001;983;1871;-58
2022/11/09 02:02:12;;;;;;;;;;;;;;;11.05;65.64;96511.81;30001;983;1876;-58
2022/11/09 02:02:46;;;;;;;;;;;;;;;11.05;65.37;96511.81;30001;983;1880;-57
2022/11/09 02:03:20;;;;;;;;;;;;;;;11.03;65.41;96511.31;30001;983;1876;-59
2022/11/09 02:04:02;;;;;;;;;;;;;;;11.04;65.63;96515.63;30001;983;1880;-58
2022/11/09 02:04:35;;;;;;;;;;;;;;;11.08;65.00;96513.91;30001;983;1876;-58
2022/11/09 02:05:09;;;;;;;;;;;;;;;11.09;65.48;96512.78;30001;982;1867;-59
2022/11/09 02:05:41;;;;;;;;;;;;;;;11.08;65.31;96519.34;30001;982;1867;-58
2022/11/09 02:06:13;;;;;;;;;;;;;;;11.06;65.30;96524.28;30001;982;1881;-58
2022/11/09 02:06:45;;;;;;;;;;;;;;;11.05;65.45;96523.47;30001;986;1867;-58
2022/11/09 02:07:17;;;;;;;;;;;;;;;11.04;65.72;96521.84;30001;982;1868;-64
2022/11/09 02:07:49;;;;;;;;;;;;;;;11.02;65.64;96518.66;30001;983;1867;-59
2022/11/09 02:08:22;;;;;;;;;;;;;;;11.02;65.77;96520.56;30001;983;1880;-59
2022/11/09 02:08:56;;;;;;;;;;;;;;;11.01;65.70;96521.66;30001;983;1876;-58
2022/11/09 02:09:38;;;;;;;;;;;;;;;11.02;65.65;96512.41;30001;983;1880;-59
2022/11/09 02:10:30;;;;;;;;;;;;;;;11.02;65.94;96517.84;30001;983;1863;-59
2022/11/09 02:11:12;;;;;;;;;;;;;;;11.02;66.04;96529.50;30001;983;1858;-58
2022/11/09 02:11:49;;;;;;;;;;;;;;;11.03;65.79;96524.87;30001;983;1876;-65
2022/11/09 02:12:21;;;;;;;;;;;;;;;11.02;65.61;96524.06;30001;983;1880;-58
2022/11/09 02:12:53;;;;;;;;;;;;;;;11.03;66.05;96530.31;30001;982;1876;-58
2022/11/09 02:13:25;;;;;;;;;;;;;;;11.02;65.77;96529.50;30001;982;1881;-58
2022/11/09 02:13:58;;;;;;;;;;;;;;;11.02;66.31;96531.41;30001;982;1876;-58
2022/11/09 02:14:31;;;;;;;;;;;;;;;11.01;66.02;96536.03;30001;982;1881;-59
2022/11/09 02:15:04;;;;;;;;;;;;;;;11.02;66.35;96524.06;30001;983;1875;-58
2022/11/09 02:15:35;;;;;;;;;;;;;;;11.07;65.44;96523.97;30001;983;1867;-58
2022/11/09 02:16:07;;;;;;;;;;;;;;;11.11;65.49;96526.84;30001;983;1867;-58
2022/11/09 02:16:39;;;;;;;;;;;;;;;11.12;65.11;96525.75;30001;983;1880;-58
2022/11/09 02:17:11;;;;;;;;;;;;;;;11.12;65.45;96528.47;30001;983;1876;-58
2022/11/09 02:17:42;;;;;;;;;;;;;;;11.12;65.31;96528.47;30001;983;1880;-58
2022/11/09 02:18:14;;;;;;;;;;;;;;;11.12;65.57;96523.03;30001;983;1876;-58
2022/11/09 02:18:56;;;;;;;;;;;;;;;11.11;65.37;96518.72;30001;983;1880;-57
2022/11/09 02:19:27;;;;;;;;;;;;;;;11.11;65.42;96516.00;30001;983;1863;-58
2022/11/09 02:19:58;;;;;;;;;;;;;;;11.11;65.68;96516.00;30001;982;1872;-58
2022/11/09 02:20:29;;;;;;;;;;;;;;;11.13;65.29;96513.78;30001;982;1876;-58
2022/11/09 02:21:00;;;;;;;;;;;;;;;11.17;64.95;96520.22;30001;982;1881;-59
2022/11/09 02:21:32;;;;;;;;;;;;;;;11.17;65.19;96520.22;30001;982;1876;-58
2022/11/09 02:22:03;;;;;;;;;;;;;;;11.17;65.27;96514.78;30001;982;1881;-58
2022/11/09 02:22:34;;;;;;;;;;;;;;;11.17;65.46;96528.34;30001;983;1875;-58
2022/11/09 02:23:08;;;;;;;;;;;;;;;11.16;65.18;96513.16;30001;983;1880;-58
2022/11/09 02:23:40;;;;;;;;;;;;;;;11.16;65.30;96517.78;30001;983;1876;-60
2022/11/09 02:24:11;;;;;;;;;;;;;;;11.15;65.55;96510.75;30001;983;1867;-60
2022/11/09 02:24:41;;;;;;;;;;;;;;;11.14;65.62;96518.09;30001;983;1867;-58
2022/11/09 02:25:13;;;;;;;;;;;;;;;11.18;65.39;96515.56;30001;983;1880;-58
2022/11/09 02:25:50;;;;;;;;;;;;;;;11.18;65.59;96513.66;30001;983;1876;-59
2022/11/09 02:26:29;;;;;;;;;;;;;;;11.20;65.23;96516.06;30001;983;1880;-58
2022/11/09 02:27:03;;;;;;;;;;;;;;;11.17;65.35;96514.78;30001;982;1876;-58
2022/11/09 02:27:35;;;;;;;;;;;;;;;11.17;65.34;96517.50;30001;982;1880;-57
2022/11/09 02:28:07;;;;;;;;;;;;;;;11.17;65.56;96513.97;30001;982;1876;-64
2022/11/09 02:28:38;;;;;;;;;;;;;;;11.16;65.45;96518.59;30001;982;1881;-57
2022/11/09 02:29:11;;;;;;;;;;;;;;;11.17;65.75;96514.78;30001;982;1863;-59
2022/11/09 02:29:44;;;;;;;;;;;;;;;11.16;65.37;96507.72;30001;982;1872;-58
2022/11/09 02:30:15;;;;;;;;;;;;;;;11.15;65.75;96514.28;30001;983;1875;-58
2022/11/09 02:30:49;;;;;;;;;;;;;;;11.15;65.68;96516.19;30001;983;1880;-57
2022/11/09 02:31:21;;;;;;;;;;;;;;;11.14;66.04;96520.00;30001;983;1876;-64
2022/11/09 02:31:55;;;;;;;;;;;;;;;11.13;65.85;96515.69;30001;983;1880;-58
2022/11/09 02:32:27;;;;;;;;;;;;;;;11.13;66.43;96519.22;30001;983;1876;-58
2022/11/09 02:32:58;;;;;;;;;;;;;;;11.11;65.81;96513.28;30001;983;1880;-58
2022/11/09 02:33:29;;;;;;;;;;;;;;;11.13;66.08;96519.22;30001;983;1876;-58
2022/11/09 02:34:03;;;;;;;;;;;;;;;11.14;65.78;96520.00;30001;983;1880;-58
2022/11/09 02:34:34;;;;;;;;;;;;;;;11.14;66.08;96515.38;30001;982;1863;-60
2022/11/09 02:35:06;;;;;;;;;;;;;;;11.15;65.93;96519.72;30001;982;1872;-58
2022/11/09 02:35:37;;;;;;;;;;;;;;;11.14;65.91;96515.38;30001;982;1876;-59
2022/11/09 02:36:07;;;;;;;;;;;;;;;11.16;65.65;96515.06;30001;982;1880;-58
2022/11/09 02:36:38;;;;;;;;;;;;;;;11.15;65.72;96511.56;30001;982;1876;-58
2022/11/09 02:37:09;;;;;;;;;;;;;;;11.18;65.60;96521.00;30001;982;1881;-59
2022/11/09 02:37:48;;;;;;;;;;;;;;;11.18;65.72;96515.56;30001;983;1875;-59
2022/11/09 02:38:19;;;;;;;;;;;;;;;11.21;65.27;96515.78;30001;983;1880;-58
2022/11/09 02:38:51;;;;;;;;;;;;;;;11.20;65.68;96519.59;30001;983;1876;-58
2022/11/09 02:39:24;;;;;;;;;;;;;;;11.23;65.63;96523.63;30001;983;1880;-64
2022/11/09 02:39:56;;;;;;;;;;;;;;;11.22;65.56;96522.81;30001;983;1862;-58
2022/11/09 02:40:31;;;;;;;;;;;;;;;11.22;65.41;96528.25;30001;983;1871;-64
2022/11/09 02:41:03;;;;;;;;;;;;;;;11.26;65.36;96529.25;30001;983;1876;-58
2022/11/09 02:41:37;;;;;;;;;;;;;;;11.26;65.53;96529.25;30001;979;1892;-58
2022/11/09 02:42:10;;;;;;;;;;;;;;;11.27;65.55;96527.34;30001;982;1876;-58
2022/11/09 02:42:41;;;;;;;;;;;;;;;11.26;65.67;96529.25;30001;982;1867;-64
2022/11/09 02:43:13;;;;;;;;;;;;;;;11.26;65.63;96529.25;30001;982;1867;-58
2022/11/09 02:43:44;;;;;;;;;;;;;;;11.25;65.76;96541.22;30001;982;1881;-58
2022/11/09 02:44:17;;;;;;;;;;;;;;;11.24;66.04;96534.19;30001;982;1876;-58
2022/11/09 02:44:50;;;;;;;;;;;;;;;11.24;65.89;96542.31;30001;983;1879;-58
2022/11/09 02:45:21;;;;;;;;;;;;;;;11.25;65.99;96535.78;30001;983;1875;-58
2022/11/09 02:45:52;;;;;;;;;;;;;;;11.25;65.78;96538.50;30001;983;1880;-58
2022/11/09 02:46:24;;;;;;;;;;;;;;;11.24;66.20;96536.88;30001;983;1876;-58
2022/11/09 02:46:55;;;;;;;;;;;;;;;11.24;65.84;96536.09;30001;983;1880;-57
2022/11/09 02:47:26;;;;;;;;;;;;;;;11.23;66.30;96529.84;30001;969;1894;-59
2022/11/09 02:47:57;;;;;;;;;;;;;;;11.24;66.20;96526.03;30001;983;1867;-58
2022/11/09 02:48:28;;;;;;;;;;;;;;;11.23;66.22;96534.47;30001;983;1867;-58
2022/11/09 02:49:03;;;;;;;;;;;;;;;11.24;65.83;96542.31;30001;983;1880;-58
2022/11/09 02:49:34;;;;;;;;;;;;;;;11.23;65.90;96534.47;30001;982;1876;-58
2022/11/09 02:50:05;;;;;;;;;;;;;;;11.23;66.23;96529.03;30001;982;1880;-58
2022/11/09 02:50:36;;;;;;;;;;;;;;;11.22;66.21;96533.69;30001;982;1876;-58
2022/11/09 02:51:07;;;;;;;;;;;;;;;11.21;66.25;96532.06;30001;982;1881;-58
2022/11/09 02:51:39;;;;;;;;;;;;;;;11.21;66.25;96537.50;30001;982;1876;-58
2022/11/09 02:52:10;;;;;;;;;;;;;;;11.22;66.27;96532.87;30001;983;1880;-59
2022/11/09 02:53:50;;;;;;;;;;;;;;;11.20;66.60;96535.88;89987;930;17000;-58
2022/11/09 02:54:21;;;;;;;;;;;;;;;11.21;66.63;96542.94;30001;982;1868;-64
2022/11/09 02:54:52;;;;;;;;;;;;;;;11.20;66.89;96540.50;30001;982;1869;-57